Time;durP1;ratioP1;P1;durP2;ratioP2;P2;SDS_P1;SDS_P2;PMS_P1;PMS_P2;Temp;Humidity;BMP_temperature;BMP_pressure;BME280_temperature;BME280_humidity;BME280_pressure;Samples;Min_cycle;Max_cycle;Signal;HPM_P1;HPM_P2
2022/01/03 21:06:58;;;;;;;182.10;99.25;;;7.10;99.90;;;;;;5069084;28;20392;-81
2022/01/03 21:09:26;;;;;;;182.52;101.25;;;6.80;99.90;;;;;;5050702;28;20082;-80
2022/01/03 21:11:54;;;;;;;277.48;145.32;;;6.80;99.90;;;;;;5067829;28;20119;-82
2022/01/03 21:14:22;;;;;;;328.45;177.90;;;7.00;99.90;;;;;;5065679;28;20060;-81
2022/01/03 21:16:50;;;;;;;302.67;158.55;;;7.00;99.90;;;;;;5066096;28;20051;-82
2022/01/03 21:19:18;;;;;;;174.50;104.35;;;6.90;99.90;;;;;;5067626;28;20063;-78
2022/01/03 21:21:45;;;;;;;158.52;92.35;;;6.80;99.90;;;;;;5068711;28;20052;-77
2022/01/03 21:24:12;;;;;;;157.20;91.95;;;6.90;99.90;;;;;;5066268;28;20052;-81
2022/01/03 21:26:40;;;;;;;171.55;95.63;;;7.00;99.90;;;;;;5063905;28;20036;-75
2022/01/03 21:29:11;;;;;;;167.60;99.93;;;7.00;99.90;;;;;;5048714;28;20500;-79
2022/01/03 21:31:39;;;;;;;187.45;105.32;;;6.90;99.90;;;;;;5067867;28;20571;-78
2022/01/03 21:34:06;;;;;;;178.82;101.82;;;6.70;99.90;;;;;;5066592;28;20056;-75
2022/01/03 21:36:34;;;;;;;237.02;134.45;;;6.60;99.90;;;;;;5063748;28;20053;-77
2022/01/03 21:39:01;;;;;;;171.20;96.50;;;6.80;99.90;;;;;;5067422;28;20128;-80
2022/01/03 21:41:29;;;;;;;160.10;91.88;;;6.80;99.90;;;;;;5065739;28;20055;-77
2022/01/03 21:43:56;;;;;;;153.25;90.65;;;7.00;99.90;;;;;;5066379;28;20049;-76
2022/01/03 21:46:24;;;;;;;164.38;93.63;;;7.00;99.90;;;;;;5048692;28;20492;-79
2022/01/03 21:48:52;;;;;;;160.85;93.30;;;7.00;99.90;;;;;;5063363;28;20053;-80
2022/01/03 21:51:19;;;;;;;151.52;93.55;;;6.90;99.90;;;;;;5068350;28;20053;-77
2022/01/03 21:53:47;;;;;;;146.30;92.28;;;6.90;99.90;;;;;;5067821;28;20103;-76
2022/01/03 21:56:14;;;;;;;156.20;95.63;;;6.90;99.90;;;;;;5064473;28;20124;-75
2022/01/03 21:58:41;;;;;;;144.77;88.22;;;6.90;99.90;;;;;;5065909;28;20051;-78
2022/01/03 22:01:09;;;;;;;156.45;91.15;;;6.80;99.90;;;;;;5063997;28;20578;-77
2022/01/03 22:03:36;;;;;;;145.63;84.63;;;6.90;99.90;;;;;;5067099;28;20044;-78
2022/01/03 22:06:03;;;;;;;143.32;83.60;;;6.60;99.90;;;;;;5048366;28;20151;-77
2022/01/03 22:08:31;;;;;;;133.75;77.60;;;6.70;99.90;;;;;;5047443;28;20033;-78
2022/01/03 22:10:59;;;;;;;121.22;74.18;;;6.70;99.90;;;;;;5029773;28;20138;-77
2022/01/03 22:13:26;;;;;;;104.88;61.83;;;6.60;99.90;;;;;;5045104;28;20419;-80
2022/01/03 22:15:53;;;;;;;89.78;52.10;;;6.70;99.90;;;;;;5045666;28;20056;-78
2022/01/03 22:18:21;;;;;;;90.70;53.83;;;6.90;99.90;;;;;;5032102;28;20037;-79
2022/01/03 22:20:48;;;;;;;100.35;58.10;;;6.70;99.90;;;;;;5033109;28;20049;-76
2022/01/03 22:23:15;;;;;;;98.97;58.33;;;6.60;99.90;;;;;;5033405;28;20056;-77
2022/01/03 22:25:43;;;;;;;94.70;56.63;;;6.60;99.90;;;;;;5030523;28;20045;-77
2022/01/03 22:28:11;;;;;;;102.22;58.47;;;6.60;99.90;;;;;;5032645;28;20129;-78
2022/01/03 22:30:38;;;;;;;104.88;58.28;;;6.50;99.90;;;;;;5034048;28;20045;-79
2022/01/03 22:33:06;;;;;;;99.95;57.03;;;6.50;99.90;;;;;;5016336;28;20083;-75
2022/01/03 22:35:35;;;;;;;95.70;56.88;;;6.50;99.90;;;;;;5031676;28;20052;-77
2022/01/03 22:38:03;;;;;;;104.93;56.80;;;6.60;99.90;;;;;;5032581;28;20038;-78
2022/01/03 22:40:31;;;;;;;98.25;57.90;;;6.60;99.90;;;;;;5033463;28;20053;-77
2022/01/03 22:42:58;;;;;;;93.97;57.40;;;6.40;99.90;;;;;;5033685;28;20116;-82
2022/01/03 22:45:26;;;;;;;105.72;59.10;;;6.40;99.90;;;;;;5032222;28;20072;-83
2022/01/03 22:47:53;;;;;;;103.55;65.00;;;6.20;99.90;;;;;;5013606;28;20052;-78
2022/01/03 22:50:21;;;;;;;109.95;65.30;;;6.40;99.90;;;;;;5032340;28;20045;-76
2022/01/03 22:52:48;;;;;;;99.40;60.80;;;6.50;99.90;;;;;;5032528;28;20045;-77
2022/01/03 22:55:16;;;;;;;104.22;64.25;;;6.30;99.90;;;;;;5015585;28;20064;-77
2022/01/03 22:57:43;;;;;;;118.53;69.72;;;6.30;99.90;;;;;;5032316;28;20424;-77
2022/01/03 23:00:18;;;;;;;119.82;69.00;;;6.20;99.90;;;;;;5029658;28;20144;-79
2022/01/03 23:02:46;;;;;;;132.93;72.05;;;6.20;99.90;;;;;;5031627;28;20068;-76
2022/01/03 23:05:14;;;;;;;296.48;153.55;;;6.30;99.90;;;;;;5018443;28;20378;-77
2022/01/03 23:07:42;;;;;;;432.95;224.60;;;6.20;99.90;;;;;;5031875;28;20046;-73
2022/01/03 23:10:10;;;;;;;165.60;97.43;;;6.40;99.90;;;;;;5015189;28;20137;-76
2022/01/03 23:12:41;;;;;;;137.90;81.47;;;6.40;99.90;;;;;;5031009;28;20107;-74
2022/01/03 23:15:10;;;;;;;126.03;74.53;;;6.30;99.90;;;;;;5031214;28;20459;-76
2022/01/03 23:17:41;;;;;;;126.15;69.68;;;6.20;99.90;;;;;;5031340;28;20045;-75
2022/01/03 23:20:12;;;;;;;121.68;69.93;;;6.10;99.90;;;;;;5033399;28;20399;-75
2022/01/03 23:22:40;;;;;;;116.82;66.97;;;6.00;99.90;;;;;;5030934;28;20144;-75
2022/01/03 23:25:09;;;;;;;112.13;67.47;;;6.10;99.90;;;;;;5029647;28;20445;-76
2022/01/03 23:27:37;;;;;;;114.80;63.00;;;6.20;99.90;;;;;;5032426;28;20045;-77
2022/01/03 23:30:07;;;;;;;115.57;66.55;;;6.10;99.90;;;;;;5032236;28;20047;-76
2022/01/03 23:32:37;;;;;;;106.35;65.47;;;6.30;99.90;;;;;;5031472;28;20082;-76
2022/01/03 23:35:05;;;;;;;110.05;62.72;;;6.20;99.90;;;;;;5030540;28;20735;-75
2022/01/03 23:37:33;;;;;;;106.35;61.85;;;6.30;99.90;;;;;;5030833;28;20061;-73
2022/01/03 23:40:00;;;;;;;98.63;56.92;;;5.90;99.90;;;;;;5031421;28;20045;-75
2022/01/03 23:42:27;;;;;;;93.65;55.97;;;6.00;99.90;;;;;;5032438;28;20046;-75
2022/01/03 23:44:54;;;;;;;82.40;50.53;;;6.20;99.90;;;;;;5030740;28;20386;-76
2022/01/03 23:47:22;;;;;;;77.72;46.08;;;6.20;99.90;;;;;;5028408;28;20044;-74
2022/01/03 23:49:49;;;;;;;68.53;40.83;;;6.40;99.90;;;;;;5037775;28;20059;-75
2022/01/03 23:52:16;;;;;;;67.30;39.97;;;6.40;99.90;;;;;;5052317;28;20127;-74
2022/01/03 23:54:44;;;;;;;63.55;39.10;;;6.40;99.90;;;;;;5051441;28;20453;-73
2022/01/03 23:57:11;;;;;;;64.60;38.47;;;6.40;99.90;;;;;;5036438;28;20042;-75
2022/01/03 23:59:38;;;;;;;60.75;35.85;;;6.20;99.90;;;;;;5028291;28;20056;-76
